createdAt,value
2019-05-25T00:00:23.455Z,2.53
2019-05-25T00:02:49.693Z,2.93
2019-05-25T00:05:16.117Z,2.10
2019-05-25T00:07:42.452Z,2.13
2019-05-25T00:10:09.285Z,2.10
2019-05-25T00:12:35.574Z,2.10
2019-05-25T00:15:04.254Z,2.10
2019-05-25T00:17:30.485Z,2.40
2019-05-25T00:19:56.728Z,2.57
2019-05-25T00:22:22.973Z,2.23
2019-05-25T00:24:49.208Z,2.40
2019-05-25T00:27:15.537Z,2.30
2019-05-25T00:29:42.190Z,2.43
2019-05-25T00:32:08.725Z,2.63
2019-05-25T00:34:35.275Z,2.17
2019-05-25T00:37:01.513Z,2.23
2019-05-25T00:39:27.767Z,3.07
2019-05-25T00:41:54.004Z,2.70
2019-05-25T00:44:20.348Z,2.17
2019-05-25T00:46:46.583Z,2.50
2019-05-25T00:49:12.922Z,1.83
2019-05-25T00:51:39.261Z,2.20
2019-05-25T00:54:05.740Z,2.20
2019-05-25T00:56:31.957Z,2.57
2019-05-25T00:58:58.202Z,2.27
2019-05-25T01:01:24.611Z,2.67
2019-05-25T01:03:51.084Z,2.20
2019-05-25T01:06:17.324Z,2.70
2019-05-25T01:08:43.552Z,2.70
2019-05-25T01:11:09.798Z,2.97
2019-05-25T01:13:36.549Z,3.43
2019-05-25T01:16:03.006Z,3.07
2019-05-25T01:18:29.243Z,2.80
2019-05-25T01:20:55.685Z,2.43
2019-05-25T01:23:22.027Z,2.43
2019-05-25T01:25:48.492Z,3.50
2019-05-25T01:28:14.835Z,3.10
2019-05-25T01:30:41.090Z,3.23
2019-05-25T01:33:07.316Z,2.63
2019-05-25T01:35:33.561Z,2.97
2019-05-25T01:37:59.889Z,3.17
2019-05-25T01:40:26.441Z,3.83
2019-05-25T01:42:52.749Z,2.60
2019-05-25T01:45:19.030Z,3.50
2019-05-25T01:47:45.329Z,3.33
2019-05-25T01:50:12.367Z,2.60
2019-05-25T01:52:38.806Z,3.20
2019-05-25T01:55:05.743Z,3.00
2019-05-25T01:57:31.992Z,2.80
2019-05-25T01:59:58.622Z,2.70
2019-05-25T02:02:24.861Z,2.83
2019-05-25T02:04:52.165Z,3.50
2019-05-25T02:07:18.421Z,3.03
2019-05-25T02:09:44.647Z,3.40
2019-05-25T02:12:10.888Z,3.47
2019-05-25T02:14:37.120Z,3.87
2019-05-25T02:17:03.497Z,4.17
2019-05-25T02:19:29.730Z,3.30
2019-05-25T02:25:25.484Z,3.53
2019-05-25T02:27:51.728Z,2.90
2019-05-25T02:30:21.766Z,3.53
2019-05-25T02:32:48.017Z,2.77
2019-05-25T02:35:26.426Z,2.83
2019-05-25T02:37:53.061Z,3.37
2019-05-25T02:40:19.755Z,4.28
2019-05-25T02:42:46.017Z,4.13
2019-05-25T02:45:12.465Z,3.40
2019-05-25T02:47:38.711Z,4.05
2019-05-25T02:50:08.138Z,3.93
2019-05-25T02:52:34.379Z,4.03
2019-05-25T02:55:00.721Z,3.50
2019-05-25T02:57:27.254Z,3.73
2019-05-25T02:59:53.504Z,3.67
2019-05-25T03:02:19.854Z,4.58
2019-05-25T03:04:46.206Z,3.87
2019-05-25T03:07:12.774Z,3.50
2019-05-25T03:09:39.417Z,3.40
2019-05-25T03:12:06.261Z,4.30
2019-05-25T03:14:32.509Z,4.47
2019-05-25T03:16:58.846Z,4.67
2019-05-25T03:19:25.104Z,4.35
2019-05-25T03:21:51.373Z,4.47
2019-05-25T03:24:17.927Z,4.60
2019-05-25T03:26:44.169Z,5.10
2019-05-25T03:29:10.405Z,4.03
2019-05-25T03:31:36.658Z,4.45
2019-05-25T03:34:02.998Z,4.53
2019-05-25T03:36:29.343Z,5.20
2019-05-25T03:38:55.575Z,4.90
2019-05-25T03:41:21.836Z,4.30
2019-05-25T03:43:48.094Z,4.97
2019-05-25T03:46:14.435Z,4.43
2019-05-25T03:48:40.781Z,4.78
2019-05-25T03:51:07.353Z,5.40
2019-05-25T03:53:33.593Z,4.55
2019-05-25T03:56:05.936Z,5.28
2019-05-25T03:58:28.005Z,5.65
2019-05-25T04:00:54.252Z,5.60
2019-05-25T04:03:20.499Z,5.83
2019-05-25T04:05:47.090Z,5.22
2019-05-25T04:08:13.333Z,6.40
2019-05-25T04:10:39.863Z,5.75
2019-05-25T04:13:06.106Z,6.90
2019-05-25T04:15:32.352Z,6.25
2019-05-25T04:17:58.885Z,7.00
2019-05-25T04:20:25.480Z,8.50
2019-05-25T04:22:51.716Z,6.65
2019-05-25T04:25:17.965Z,8.15
2019-05-25T04:27:44.313Z,7.45
2019-05-25T04:30:11.254Z,7.15
2019-05-25T04:32:37.851Z,6.97
2019-05-25T04:35:05.313Z,6.90
2019-05-25T04:37:31.554Z,7.60
2019-05-25T04:39:57.800Z,7.50
2019-05-25T04:42:24.043Z,7.25
2019-05-25T04:44:50.389Z,9.03
2019-05-25T04:47:26.656Z,7.95
2019-05-25T04:49:44.898Z,6.92
2019-05-25T04:52:11.146Z,7.75
2019-05-25T04:54:37.406Z,9.15
2019-05-25T04:57:04.208Z,8.88
2019-05-25T04:59:31.085Z,7.78
2019-05-25T05:01:57.325Z,7.55
2019-05-25T05:04:23.593Z,8.98
2019-05-25T05:06:49.954Z,7.47
2019-05-25T05:09:16.388Z,7.60
2019-05-25T05:11:42.627Z,9.55
2019-05-25T05:14:08.874Z,8.48
2019-05-25T05:16:35.505Z,8.70
2019-05-25T05:19:01.849Z,8.40
2019-05-25T05:21:28.103Z,9.78
2019-05-25T05:23:54.348Z,9.78
2019-05-25T05:26:20.591Z,9.40
2019-05-25T05:28:49.131Z,10.55
2019-05-25T05:31:23.497Z,11.80
2019-05-25T05:33:43.661Z,10.10
2019-05-25T05:36:11.618Z,10.90
2019-05-25T05:38:38.348Z,11.53
2019-05-25T05:41:06.113Z,11.50
2019-05-25T05:43:35.644Z,10.63
2019-05-25T05:46:03.481Z,11.53
2019-05-25T05:48:31.228Z,10.05
2019-05-25T05:50:59.381Z,10.57
2019-05-25T05:53:25.624Z,9.87
2019-05-25T05:55:51.922Z,10.00
2019-05-25T05:58:18.488Z,9.97
2019-05-25T06:00:45.671Z,10.28
2019-05-25T06:03:11.971Z,9.70
2019-05-25T06:05:38.203Z,8.93
2019-05-25T06:08:04.444Z,10.37
2019-05-25T06:10:30.678Z,10.77
2019-05-25T06:12:57.069Z,11.07
2019-05-25T06:15:23.622Z,10.13
2019-05-25T06:17:49.875Z,9.97
2019-05-25T06:20:16.220Z,10.57
2019-05-25T06:22:42.457Z,9.80
2019-05-25T06:25:09.135Z,9.43
2019-05-25T06:27:35.432Z,9.90
2019-05-25T06:30:03.861Z,9.80
2019-05-25T06:32:30.211Z,10.43
2019-05-25T06:34:56.446Z,9.00
2019-05-25T06:37:22.810Z,8.60
2019-05-25T06:39:49.045Z,9.40
2019-05-25T06:42:15.276Z,9.37
2019-05-25T06:44:41.644Z,50.13
2019-05-25T06:47:07.949Z,12.10
2019-05-25T06:49:34.188Z,9.47
2019-05-25T06:52:00.428Z,9.83
2019-05-25T06:54:26.961Z,10.63
2019-05-25T06:56:53.203Z,9.20
2019-05-25T06:59:19.564Z,8.33
2019-05-25T07:01:45.785Z,9.53
2019-05-25T07:04:12.124Z,8.80
2019-05-25T07:06:38.369Z,8.27
2019-05-25T07:09:05.609Z,9.13
2019-05-25T07:11:31.946Z,8.63
2019-05-25T07:13:58.173Z,8.13
2019-05-25T07:16:24.429Z,9.80
2019-05-25T07:18:50.667Z,10.20
2019-05-25T07:21:16.908Z,9.33
2019-05-25T07:23:43.236Z,9.33
2019-05-25T07:26:09.489Z,10.10
2019-05-25T07:28:35.708Z,8.87
2019-05-25T07:31:01.958Z,8.00
2019-05-25T07:33:28.394Z,9.83
2019-05-25T07:35:54.641Z,11.17
2019-05-25T07:38:20.892Z,12.37
2019-05-25T07:40:47.470Z,14.17
2019-05-25T07:43:13.716Z,14.60
2019-05-25T07:45:40.637Z,13.03
2019-05-25T07:48:07.281Z,13.80
2019-05-25T07:50:33.540Z,12.73
2019-05-25T07:53:00.047Z,12.50
2019-05-25T07:55:26.282Z,12.93
2019-05-25T07:57:52.522Z,14.50
2019-05-25T08:00:18.919Z,13.97
2019-05-25T08:02:45.227Z,13.73
2019-05-25T08:05:11.834Z,13.03
2019-05-25T08:07:38.333Z,14.53
2019-05-25T08:10:05.582Z,14.27
2019-05-25T08:12:31.806Z,15.17
2019-05-25T08:14:58.346Z,16.23
2019-05-25T08:17:24.685Z,17.80
2019-05-25T08:19:51.130Z,16.50
2019-05-25T08:22:17.469Z,14.23
2019-05-25T08:24:43.987Z,13.87
2019-05-25T08:27:10.234Z,13.37
2019-05-25T08:29:36.473Z,13.27
2019-05-25T08:32:02.906Z,12.50
2019-05-25T08:34:29.270Z,11.73
2019-05-25T08:36:55.841Z,11.90
2019-05-25T08:39:22.197Z,10.17
2019-05-25T08:41:48.709Z,9.63
2019-05-25T08:44:15.063Z,9.03
2019-05-25T08:46:41.295Z,10.10
2019-05-25T08:49:07.550Z,10.97
2019-05-25T08:51:33.878Z,9.97
2019-05-25T08:54:00.222Z,9.80
2019-05-25T08:56:26.712Z,8.90
2019-05-25T08:58:55.489Z,11.03
2019-05-25T09:01:21.213Z,11.60
2019-05-25T09:03:47.442Z,11.73
2019-05-25T09:06:13.682Z,11.73
2019-05-25T09:08:39.916Z,12.33
2019-05-25T09:11:06.209Z,11.63
2019-05-25T09:13:32.501Z,9.70
2019-05-25T09:15:58.745Z,10.20
2019-05-25T09:18:24.994Z,9.47
2019-05-25T09:20:51.547Z,10.50
2019-05-25T09:23:17.785Z,10.83
2019-05-25T09:25:44.021Z,8.27
2019-05-25T09:28:10.715Z,10.47
2019-05-25T09:30:37.063Z,9.30
2019-05-25T09:33:03.282Z,10.10
2019-05-25T09:35:29.530Z,8.43
2019-05-25T09:37:55.772Z,8.80
2019-05-25T09:40:22.122Z,8.40
2019-05-25T09:46:29.485Z,9.37
2019-05-25T09:48:55.740Z,10.33
2019-05-25T09:51:21.973Z,11.40
2019-05-25T09:53:48.229Z,10.80
2019-05-25T09:56:14.455Z,10.17
2019-05-25T09:58:40.703Z,11.40
2019-05-25T10:01:06.941Z,10.83
2019-05-25T10:03:33.177Z,10.23
2019-05-25T10:05:59.521Z,10.40
2019-05-25T10:08:25.754Z,10.70
2019-05-25T10:10:52.094Z,10.23
2019-05-25T10:13:18.321Z,12.33
2019-05-25T10:15:44.667Z,13.60
2019-05-25T10:18:10.902Z,11.00
2019-05-25T10:20:37.131Z,12.07
2019-05-25T10:23:03.567Z,10.87
2019-05-25T10:25:29.796Z,11.30
2019-05-25T10:27:56.033Z,13.37
2019-05-25T10:30:22.687Z,11.60
2019-05-25T10:32:49.028Z,11.93
2019-05-25T10:35:15.374Z,12.60
2019-05-25T10:37:41.727Z,12.97
2019-05-25T10:40:08.999Z,12.97
2019-05-25T10:42:35.233Z,12.80
2019-05-25T10:45:03.474Z,12.10
2019-05-25T10:47:29.860Z,11.87
2019-05-25T10:49:56.144Z,12.87
2019-05-25T10:52:22.472Z,12.60
2019-05-25T10:54:48.800Z,12.67
2019-05-25T10:57:15.040Z,11.90
2019-05-25T10:59:52.457Z,11.60
2019-05-25T11:02:09.431Z,12.90
2019-05-25T11:04:35.648Z,13.43
2019-05-25T11:07:01.884Z,11.93
2019-05-25T11:09:28.120Z,14.03
2019-05-25T11:11:54.680Z,11.83
2019-05-25T11:14:21.218Z,12.67
2019-05-25T11:16:47.453Z,12.57
2019-05-25T11:19:13.706Z,13.17
2019-05-25T11:21:40.216Z,11.90
2019-05-25T11:24:06.448Z,12.50
2019-05-25T11:26:32.778Z,12.10
2019-05-25T11:28:59.019Z,10.77
2019-05-25T11:31:25.532Z,12.10
2019-05-25T11:33:51.776Z,11.60
2019-05-25T11:36:18.026Z,12.80
2019-05-25T11:38:44.283Z,12.37
2019-05-25T11:41:10.613Z,13.00
2019-05-25T11:43:36.953Z,13.97
2019-05-25T11:46:03.381Z,12.77
2019-05-25T11:48:29.621Z,13.53
2019-05-25T11:50:55.857Z,11.90
2019-05-25T11:53:22.200Z,13.73
2019-05-25T11:55:48.428Z,15.17
2019-05-25T11:58:14.770Z,15.13
2019-05-25T12:00:41.296Z,15.17
2019-05-25T12:03:07.544Z,13.40
2019-05-25T12:05:33.790Z,13.20
2019-05-25T12:08:00.296Z,11.67
2019-05-25T12:10:26.537Z,12.00
2019-05-25T12:12:52.786Z,11.90
2019-05-25T12:15:19.389Z,13.10
2019-05-25T12:17:45.633Z,13.00
2019-05-25T12:20:12.461Z,11.70
2019-05-25T12:22:38.955Z,11.30
2019-05-25T12:25:05.608Z,9.80
2019-05-25T12:27:31.833Z,9.50
2019-05-25T12:29:58.085Z,9.63
2019-05-25T12:32:24.308Z,9.10
2019-05-25T12:34:50.552Z,8.83
2019-05-25T12:37:16.897Z,8.70
2019-05-25T12:39:43.143Z,10.80
2019-05-25T12:42:09.374Z,8.17
2019-05-25T12:44:35.655Z,9.70
2019-05-25T12:47:01.972Z,9.10
2019-05-25T12:49:28.221Z,6.97
2019-05-25T12:51:54.461Z,6.60
2019-05-25T12:54:20.710Z,8.57
2019-05-25T12:56:46.932Z,8.70
2019-05-25T12:59:13.166Z,8.87
2019-05-25T13:01:39.396Z,7.57
2019-05-25T13:04:05.737Z,6.90
2019-05-25T13:06:31.976Z,5.83
2019-05-25T13:08:58.237Z,5.57
2019-05-25T13:11:24.542Z,5.40
2019-05-25T13:13:50.767Z,5.70
2019-05-25T13:16:17.093Z,5.57
2019-05-25T13:18:43.380Z,4.87
2019-05-25T13:21:09.640Z,5.00
2019-05-25T13:23:35.877Z,5.23
2019-05-25T13:26:02.104Z,5.40
2019-05-25T13:28:28.608Z,4.93
2019-05-25T13:30:54.860Z,5.03
2019-05-25T13:33:21.093Z,3.50
2019-05-25T13:35:47.330Z,3.97
2019-05-25T13:38:13.661Z,3.67
2019-05-25T13:40:40.260Z,3.30
2019-05-25T13:43:06.476Z,3.70
2019-05-25T13:45:32.723Z,4.50
2019-05-25T13:47:59.041Z,4.53
2019-05-25T13:50:25.381Z,4.10
2019-05-25T13:52:51.726Z,3.33
2019-05-25T13:55:18.249Z,2.67
2019-05-25T13:57:44.580Z,3.20
2019-05-25T14:00:11.421Z,3.33
2019-05-25T14:02:37.752Z,3.30
2019-05-25T14:05:04.692Z,2.80
2019-05-25T14:07:31.233Z,2.70
2019-05-25T14:09:57.581Z,3.30
2019-05-25T14:12:23.813Z,2.70
2019-05-25T14:14:50.047Z,2.60
2019-05-25T14:17:16.386Z,2.67
2019-05-25T14:19:42.722Z,3.27
2019-05-25T14:22:08.945Z,2.70
2019-05-25T14:24:35.553Z,3.57
2019-05-25T14:27:01.805Z,3.17
2019-05-25T14:29:28.060Z,2.87
2019-05-25T14:31:54.298Z,3.43
2019-05-25T14:34:20.529Z,4.20
2019-05-25T14:36:47.109Z,3.10
2019-05-25T14:39:13.350Z,3.53
2019-05-25T14:41:39.952Z,3.73
2019-05-25T14:44:06.504Z,3.67
2019-05-25T14:46:32.861Z,2.90
2019-05-25T14:48:59.088Z,4.30
2019-05-25T14:51:25.337Z,3.37
2019-05-25T14:53:51.561Z,4.23
2019-05-25T14:56:18.066Z,2.63
2019-05-25T14:58:44.369Z,3.83
2019-05-25T15:01:10.784Z,3.10
2019-05-25T15:03:37.004Z,3.27
2019-05-25T15:06:03.461Z,3.90
2019-05-25T15:08:29.689Z,3.97
2019-05-25T15:10:56.027Z,4.50
2019-05-25T15:13:22.269Z,3.57
2019-05-25T15:15:48.604Z,3.57
2019-05-25T15:18:14.841Z,3.97
2019-05-25T15:20:41.681Z,3.30
2019-05-25T15:23:07.904Z,4.47
2019-05-25T15:25:34.378Z,4.40
2019-05-25T15:28:00.712Z,4.17
2019-05-25T15:30:26.928Z,4.00
2019-05-25T15:32:53.177Z,4.07
2019-05-25T15:35:20.564Z,4.50
2019-05-25T15:37:47.336Z,3.63
2019-05-25T15:40:14.585Z,3.83
2019-05-25T15:42:40.835Z,3.80
2019-05-25T15:45:08.053Z,3.30
2019-05-25T15:47:34.295Z,4.00
2019-05-25T15:50:00.825Z,3.30
2019-05-25T15:52:27.063Z,3.43
2019-05-25T15:54:53.298Z,3.57
2019-05-25T15:57:19.649Z,3.40
2019-05-25T15:59:45.886Z,4.20
2019-05-25T16:02:12.223Z,3.63
2019-05-25T16:04:38.454Z,3.57
2019-05-25T16:07:04.833Z,3.30
2019-05-25T16:09:31.126Z,3.90
2019-05-25T16:11:57.377Z,4.23
2019-05-25T16:14:23.605Z,4.87
2019-05-25T16:16:49.877Z,4.60
2019-05-25T16:19:16.121Z,3.30
2019-05-25T16:21:42.354Z,3.90
2019-05-25T16:24:08.693Z,3.97
2019-05-25T16:26:45.444Z,3.83
2019-05-25T16:29:03.273Z,3.37
2019-05-25T16:31:29.894Z,4.33
2019-05-25T16:33:56.420Z,4.27
2019-05-25T16:36:22.645Z,3.70
2019-05-25T16:38:48.994Z,3.40
2019-05-25T16:41:15.620Z,3.43
2019-05-25T16:43:41.974Z,4.20
2019-05-25T16:46:08.212Z,3.93
2019-05-25T16:48:34.444Z,4.10
2019-05-25T16:51:00.674Z,4.33
2019-05-25T16:53:27.019Z,6.23
2019-05-25T16:55:54.795Z,4.83
2019-05-25T16:58:21.298Z,4.67
2019-05-25T17:00:47.529Z,4.83
2019-05-25T17:03:27.669Z,4.43
2019-05-25T17:05:41.906Z,4.90
2019-05-25T17:08:08.146Z,4.37
2019-05-25T17:10:34.501Z,5.47
2019-05-25T17:13:00.725Z,5.37
2019-05-25T17:15:26.976Z,5.00
2019-05-25T17:17:53.302Z,4.43
2019-05-25T17:20:20.146Z,5.07
2019-05-25T17:22:46.376Z,5.00
2019-05-25T17:25:13.217Z,4.90
2019-05-25T17:27:39.461Z,4.63
2019-05-25T17:30:07.094Z,4.90
2019-05-25T17:32:33.325Z,4.90
2019-05-25T17:34:59.921Z,4.57
2019-05-25T17:37:26.629Z,4.50
2019-05-25T17:39:52.993Z,4.87
2019-05-25T17:42:19.332Z,4.67
2019-05-25T17:44:45.570Z,4.90
2019-05-25T17:47:11.830Z,5.37
2019-05-25T17:49:38.401Z,4.27
2019-05-25T17:52:04.734Z,4.70
2019-05-25T17:54:30.957Z,4.77
2019-05-25T17:56:57.209Z,4.80
2019-05-25T17:59:23.744Z,4.50
2019-05-25T18:01:49.997Z,4.10
2019-05-25T18:04:16.334Z,5.30
2019-05-25T18:06:42.579Z,5.23
2019-05-25T18:09:09.068Z,5.17
2019-05-25T18:11:35.512Z,5.00
2019-05-25T18:14:01.853Z,5.07
2019-05-25T18:16:28.093Z,4.53
2019-05-25T18:18:54.560Z,5.23
2019-05-25T18:21:20.791Z,4.67
2019-05-25T18:23:47.374Z,4.90
2019-05-25T18:26:13.913Z,4.97
2019-05-25T18:28:40.162Z,4.73
2019-05-25T18:31:06.633Z,5.50
2019-05-25T18:33:32.881Z,4.40
2019-05-25T18:35:59.105Z,4.03
2019-05-25T18:38:25.363Z,4.53
2019-05-25T18:40:51.593Z,4.47
2019-05-25T18:43:17.833Z,5.10
2019-05-25T18:45:44.060Z,4.30
2019-05-25T18:48:10.411Z,4.20
2019-05-25T18:50:36.704Z,4.07
2019-05-25T18:53:03.243Z,4.43
2019-05-25T18:55:29.469Z,4.40
2019-05-25T18:57:55.804Z,4.40
2019-05-25T19:00:22.334Z,4.10
2019-05-25T19:02:48.681Z,4.80
2019-05-25T19:05:15.315Z,4.37
2019-05-25T19:07:41.642Z,4.93
2019-05-25T19:10:08.690Z,4.30
2019-05-25T19:12:34.920Z,4.80
2019-05-25T19:15:01.571Z,4.97
2019-05-25T19:17:27.772Z,4.97
2019-05-25T19:19:54.125Z,4.27
2019-05-25T19:22:20.459Z,3.97
2019-05-25T19:24:46.693Z,3.77
2019-05-25T19:27:13.037Z,4.63
2019-05-25T19:29:39.638Z,4.00
2019-05-25T19:32:05.875Z,4.07
2019-05-25T19:34:32.225Z,4.30
2019-05-25T19:37:03.608Z,4.80
2019-05-25T19:39:26.606Z,5.60
2019-05-25T19:41:52.851Z,5.73
2019-05-25T19:44:19.078Z,5.23
2019-05-25T19:46:45.371Z,6.47
2019-05-25T19:49:11.649Z,6.00
2019-05-25T19:51:37.881Z,6.37
2019-05-25T19:54:04.117Z,5.63
2019-05-25T19:56:30.362Z,6.97
2019-05-25T19:58:56.605Z,6.40
2019-05-25T20:01:23.174Z,5.60
2019-05-25T20:03:49.442Z,6.63
2019-05-25T20:06:15.652Z,4.80
2019-05-25T20:08:41.994Z,5.23
2019-05-25T20:11:08.236Z,4.43
2019-05-25T20:13:54.432Z,4.63
2019-05-25T20:16:24.534Z,4.30
2019-05-25T20:18:48.805Z,4.60
2019-05-25T20:21:15.058Z,4.87
2019-05-25T20:23:41.316Z,5.33
2019-05-25T20:26:07.566Z,5.13
2019-05-25T20:28:33.793Z,3.90
2019-05-25T20:31:00.041Z,4.50
2019-05-25T20:33:28.078Z,4.60
2019-05-25T20:35:54.524Z,4.07
2019-05-25T20:38:20.863Z,3.90
2019-05-25T20:40:47.121Z,4.60
2019-05-25T20:43:13.456Z,4.60
2019-05-25T20:45:39.974Z,4.40
2019-05-25T20:48:10.526Z,5.60
2019-05-25T20:50:34.847Z,4.17
2019-05-25T20:53:01.187Z,4.90
2019-05-25T20:55:27.438Z,5.10
2019-05-25T20:57:53.777Z,4.87
2019-05-25T21:00:23.986Z,4.33
2019-05-25T21:03:04.848Z,5.80
2019-05-25T21:05:16.433Z,4.63
2019-05-25T21:07:42.672Z,5.53
2019-05-25T21:10:10.136Z,4.87
2019-05-25T21:12:36.565Z,5.40
2019-05-25T21:15:05.413Z,4.50
2019-05-25T21:17:31.758Z,4.30
2019-05-25T21:19:58.010Z,3.90
2019-05-25T21:22:24.269Z,4.90
2019-05-25T21:24:50.600Z,5.10
2019-05-25T21:27:16.853Z,4.57
2019-05-25T21:29:43.093Z,4.57
2019-05-25T21:32:09.350Z,4.93
2019-05-25T21:34:35.595Z,5.70
2019-05-25T21:37:01.837Z,5.70
2019-05-25T21:39:28.085Z,5.23
2019-05-25T21:41:54.327Z,6.37
2019-05-25T21:44:20.581Z,5.30
2019-05-25T21:46:46.933Z,5.40
2019-05-25T21:49:13.164Z,5.83
2019-05-25T21:51:39.433Z,5.60
2019-05-25T21:54:05.777Z,5.33
2019-05-25T21:56:32.019Z,6.23
2019-05-25T21:58:58.257Z,5.40
2019-05-25T22:01:24.900Z,5.30
2019-05-25T22:03:51.184Z,5.13
2019-05-25T22:06:24.216Z,6.20
2019-05-25T22:08:45.766Z,5.87
2019-05-25T22:11:12.007Z,5.50
2019-05-25T22:13:38.250Z,6.17
2019-05-25T22:16:04.584Z,5.50
2019-05-25T22:18:31.100Z,5.00
2019-05-25T22:20:57.333Z,6.10
2019-05-25T22:23:23.582Z,9.33
2019-05-25T22:25:49.923Z,12.10
2019-05-25T22:28:16.180Z,12.93
2019-05-25T22:30:42.424Z,9.93
2019-05-25T22:33:08.758Z,9.70
2019-05-25T22:35:35.508Z,8.27
2019-05-25T22:38:02.048Z,7.87
2019-05-25T22:40:28.582Z,5.57
2019-05-25T22:42:55.115Z,6.60
2019-05-25T22:45:21.371Z,6.00
2019-05-25T22:47:47.609Z,6.93
2019-05-25T22:50:14.460Z,6.17
2019-05-25T22:52:40.693Z,6.77
2019-05-25T22:55:07.276Z,6.30
2019-05-25T22:57:33.517Z,6.63
2019-05-25T22:59:59.856Z,7.27
2019-05-25T23:02:26.089Z,7.63
2019-05-25T23:04:52.325Z,7.47
2019-05-25T23:07:18.778Z,7.73
2019-05-25T23:09:45.028Z,8.20
2019-05-25T23:12:11.257Z,8.70
2019-05-25T23:14:37.501Z,7.77
2019-05-25T23:17:04.161Z,6.53
2019-05-25T23:19:30.409Z,7.23
2019-05-25T23:21:56.637Z,6.27
2019-05-25T23:24:22.977Z,7.70
2019-05-25T23:26:49.217Z,6.77
2019-05-25T23:29:15.452Z,6.80
2019-05-25T23:31:41.701Z,7.57
2019-05-25T23:34:08.018Z,7.30
2019-05-25T23:36:34.338Z,7.87
2019-05-25T23:39:00.746Z,10.27
2019-05-25T23:41:26.980Z,9.97
2019-05-25T23:43:53.224Z,10.30
2019-05-25T23:46:19.465Z,11.07
2019-05-25T23:48:45.704Z,12.17
2019-05-25T23:51:12.196Z,11.27
2019-05-25T23:53:38.436Z,9.87
2019-05-25T23:56:04.687Z,9.43
2019-05-25T23:58:30.918Z,9.20
